Aeroporto :
LOGIN :

Iscrizione | Disclaimer

   EN    FR    IT 

 










Sommario :    VFR   VFR Marginale   IFR   IFR Intensivo   IFR Molto Intensivo
Visibilità : 
Base nubi : 
>= 8 km
>= 3000ft
5 / 8 km
1000 / 3000 ft
1500m / 5 km
500 / 1000 ft
800 / 1500m
200 / 500 ft
< 800m
< 200 ft
Simboli :   Temporali  Nebbia  Neve Forte  Precipitazioni Forti  Vento > 20 kt
SIGMETs :   Varie  Temporali  Ghiacco  Turbolenza  Onda orograficha  Ceneri Vulcaniche






- Altitudine del aeroporto : 510 ft


LJCE - Cerklje

ULTIMO METAR :
  • 110830Z 26001KT 9999 FEW025 26/20 Q1017 RMK BLU

METARs OBSOLETI :
  • 110800Z VRB02KT CAVOK 25/20 Q1017 RMK BLU
  • 110730Z VRB01KT CAVOK 24/20 Q1017 RMK BLU
  • 110700Z VRB02KT CAVOK 23/20 Q1017 RMK BLU
  • 110630Z VRB02KT CAVOK 21/19 Q1017 RMK BLU
  • 110600Z VRB02KT CAVOK 21/19 Q1017 RMK BLU

TAF TAF LJCE
Valido dal 11 a 09 ore il 11 a 18 ore UTC


110800Z 1109/1118 08004KT CAVOK
TEMPO 1112/1118 VRB15KT 5000 TSRA BKN045CB



MetMap, La meteo Aeronautica in un colpo d'occhio ! - Copyright ORBIFLY Dicembre 2007 - Disclaimer

ORBIFLY MET'MAP TEAM :

Programmazione e sviluppo : Alexandra Zaïnal
Concezione : Baudouin d'Aumeries
Aiuto per la programmazione : Marc-Olivier Méhu
Supporto tecnico e logistico : Manuel Goepfert
Aiuto per la traduzione : Arnaldo La Scala

Contatto : metmap@orbifly.com




FONTI E CREDITI :

   NOAA